createdAt,value
2023-05-20T00:00:44.932Z,12.88
2023-05-20T00:03:11.573Z,12.84
2023-05-20T00:05:38.541Z,12.85
2023-05-20T00:08:07.900Z,12.22
2023-05-20T00:10:34.619Z,12.71
2023-05-20T00:13:01.921Z,12.36
2023-05-20T00:15:29.112Z,12.71
2023-05-20T00:17:56.347Z,12.27
2023-05-20T00:20:23.199Z,12.55
2023-05-20T00:22:49.725Z,12.14
2023-05-20T00:25:16.445Z,12.60
2023-05-20T00:27:43.190Z,12.56
2023-05-20T00:30:10.910Z,12.52
2023-05-20T00:32:37.745Z,12.57
2023-05-20T00:35:04.831Z,12.46
2023-05-20T00:37:31.443Z,12.56
2023-05-20T00:39:58.028Z,12.42
2023-05-20T00:42:26.888Z,12.55
2023-05-20T00:44:54.055Z,12.52
2023-05-20T00:47:28.705Z,11.98
2023-05-20T00:49:56.358Z,12.41
2023-05-20T00:52:23.378Z,12.03
2023-05-20T00:54:51.460Z,12.42
2023-05-20T00:57:19.952Z,11.93
2023-05-20T00:59:46.914Z,12.30
2023-05-20T01:02:14.086Z,12.20
2023-05-20T01:04:41.878Z,12.26
2023-05-20T01:07:08.496Z,12.31
2023-05-20T01:09:35.859Z,12.32
2023-05-20T01:12:26.443Z,11.95
2023-05-20T01:15:10.737Z,12.34
2023-05-20T01:17:49.876Z,12.29
2023-05-20T01:20:18.880Z,12.34
2023-05-20T01:22:52.768Z,12.37
2023-05-20T01:25:19.741Z,11.05
2023-05-20T01:27:48.947Z,12.44
2023-05-20T01:30:16.587Z,12.45
2023-05-20T01:32:48.508Z,11.96
2023-05-20T01:35:17.032Z,12.59
2023-05-20T01:37:44.525Z,12.12
2023-05-20T01:40:15.153Z,12.55
2023-05-20T01:42:43.934Z,12.68
2023-05-20T01:45:10.927Z,12.33
2023-05-20T01:47:38.205Z,12.69
2023-05-20T01:50:05.751Z,12.28
2023-05-20T01:52:32.421Z,12.58
2023-05-20T01:54:59.199Z,12.55
2023-05-20T01:57:25.990Z,12.49
2023-05-20T01:59:52.956Z,12.43
2023-05-20T02:02:19.795Z,12.37
2023-05-20T02:04:48.952Z,12.36
2023-05-20T02:07:16.448Z,12.30
2023-05-20T02:09:43.097Z,12.25
2023-05-20T02:12:16.421Z,11.76
2023-05-20T02:14:47.903Z,11.68
2023-05-20T02:17:17.204Z,12.23
2023-05-20T02:19:44.828Z,12.16
2023-05-20T02:22:11.929Z,12.04
2023-05-20T02:24:38.692Z,11.95
2023-05-20T02:27:06.313Z,11.45
2023-05-20T02:29:33.983Z,11.92
2023-05-20T02:32:00.715Z,11.83
2023-05-20T02:34:30.230Z,11.04
2023-05-20T02:36:58.597Z,11.43
2023-05-20T02:39:25.236Z,11.46
2023-05-20T02:41:51.834Z,11.68
2023-05-20T02:44:18.406Z,11.31
2023-05-20T02:46:45.046Z,11.66
2023-05-20T02:49:11.657Z,11.12
2023-05-20T02:51:40.909Z,11.58
2023-05-20T02:54:07.548Z,11.63
2023-05-20T02:56:34.334Z,11.61
2023-05-20T02:59:03.527Z,11.53
2023-05-20T03:01:30.386Z,11.42
2023-05-20T03:03:57.031Z,11.26
2023-05-20T03:06:23.708Z,10.84
2023-05-20T03:08:50.431Z,11.51
2023-05-20T03:11:17.100Z,11.43
2023-05-20T03:13:43.696Z,11.44
2023-05-20T03:16:13.073Z,10.85
2023-05-20T03:18:40.648Z,11.46
2023-05-20T03:21:07.488Z,11.39
2023-05-20T03:23:34.978Z,11.30
2023-05-20T03:26:03.265Z,11.38
2023-05-20T03:28:29.858Z,11.24
2023-05-20T03:30:56.744Z,11.44
2023-05-20T03:33:26.144Z,11.43
2023-05-20T03:35:53.732Z,11.18
2023-05-20T03:38:20.601Z,11.28
2023-05-20T03:40:47.190Z,11.40
2023-05-20T03:43:13.823Z,11.42
2023-05-20T03:45:40.430Z,11.37
2023-05-20T03:48:08.314Z,11.37
2023-05-20T03:50:35.917Z,10.85
2023-05-20T03:53:02.780Z,11.43
2023-05-20T03:55:37.194Z,10.94
2023-05-20T03:58:04.109Z,11.27
2023-05-20T04:00:32.130Z,11.44
2023-05-20T04:02:59.266Z,11.40
2023-05-20T04:05:26.629Z,11.21
2023-05-20T04:07:54.732Z,11.43
2023-05-20T04:10:23.629Z,11.40
2023-05-20T04:12:52.360Z,11.52
2023-05-20T04:15:19.768Z,11.49
2023-05-20T04:17:54.927Z,11.36
2023-05-20T04:20:21.937Z,11.53
2023-05-20T04:22:50.656Z,11.03
2023-05-20T04:25:17.703Z,11.47
2023-05-20T04:27:44.381Z,11.66
2023-05-20T04:30:11.847Z,11.69
2023-05-20T04:32:41.637Z,11.66
2023-05-20T04:35:11.938Z,11.80
2023-05-20T04:37:42.219Z,11.70
2023-05-20T04:40:09.885Z,11.91
2023-05-20T04:42:37.722Z,11.91
2023-05-20T04:45:05.820Z,11.83
2023-05-20T04:47:38.489Z,11.47
2023-05-20T04:50:13.524Z,11.61
2023-05-20T04:52:42.863Z,12.18
2023-05-20T04:55:10.661Z,12.15
2023-05-20T04:57:42.244Z,12.25
2023-05-20T05:00:12.228Z,12.27
2023-05-20T05:02:40.301Z,11.93
2023-05-20T05:05:07.496Z,12.44
2023-05-20T05:07:34.245Z,12.05
2023-05-20T05:10:01.229Z,12.42
2023-05-20T05:12:29.911Z,12.06
2023-05-20T05:14:58.632Z,12.09
2023-05-20T05:17:25.685Z,12.65
2023-05-20T05:19:52.393Z,12.66
2023-05-20T05:22:19.002Z,12.77
2023-05-20T05:24:45.665Z,12.43
2023-05-20T05:27:12.293Z,12.73
2023-05-20T05:29:38.840Z,13.01
2023-05-20T05:32:05.616Z,12.94
2023-05-20T05:34:32.254Z,13.15
2023-05-20T05:36:59.353Z,13.21
2023-05-20T05:39:25.986Z,13.50
2023-05-20T05:41:54.158Z,13.70
2023-05-20T05:44:21.026Z,13.71
2023-05-20T05:46:48.786Z,14.02
2023-05-20T05:49:15.681Z,14.92
2023-05-20T05:51:42.247Z,15.19
2023-05-20T05:54:08.837Z,15.28
2023-05-20T05:56:35.421Z,15.81
2023-05-20T05:59:02.073Z,16.14
2023-05-20T06:01:28.736Z,16.07
2023-05-20T06:03:55.749Z,16.43
2023-05-20T06:06:22.583Z,16.52
2023-05-20T06:08:49.172Z,16.68
2023-05-20T06:11:16.336Z,17.08
2023-05-20T06:13:43.103Z,17.43
2023-05-20T06:16:09.714Z,17.31
2023-05-20T06:18:36.311Z,17.94
2023-05-20T06:21:04.933Z,18.30
2023-05-20T06:23:32.018Z,18.44
2023-05-20T06:26:01.575Z,18.12
2023-05-20T06:28:30.203Z,18.25
2023-05-20T06:30:57.747Z,18.10
2023-05-20T06:33:27.527Z,18.73
2023-05-20T06:35:59.134Z,18.73
2023-05-20T06:38:25.753Z,19.01
2023-05-20T06:40:52.437Z,19.13
2023-05-20T06:43:19.206Z,19.06
2023-05-20T06:46:04.791Z,19.25
2023-05-20T06:48:53.048Z,19.72
2023-05-20T06:51:19.639Z,19.94
2023-05-20T06:53:48.880Z,19.94
2023-05-20T06:56:15.912Z,20.24
2023-05-20T06:58:43.277Z,20.50
2023-05-20T07:01:10.134Z,20.66
2023-05-20T07:03:36.849Z,20.73
2023-05-20T07:06:03.562Z,20.60
2023-05-20T07:08:30.760Z,20.04
2023-05-20T07:10:57.514Z,20.41
2023-05-20T07:13:25.942Z,20.46
2023-05-20T07:15:52.761Z,20.60
2023-05-20T07:18:19.651Z,21.01
2023-05-20T07:20:52.734Z,21.27
2023-05-20T07:23:31.918Z,21.41
2023-05-20T07:25:58.498Z,21.48
2023-05-20T07:28:25.172Z,21.32
2023-05-20T07:30:52.824Z,21.71
2023-05-20T07:33:24.746Z,21.35
2023-05-20T07:35:54.442Z,21.74
2023-05-20T07:38:22.272Z,21.79
2023-05-20T07:40:56.008Z,21.60
2023-05-20T07:43:22.642Z,21.90
2023-05-20T07:45:49.317Z,22.01
2023-05-20T07:48:16.493Z,22.01
2023-05-20T07:50:44.581Z,21.95
2023-05-20T07:53:12.019Z,21.97
2023-05-20T07:55:39.308Z,22.22
2023-05-20T07:58:06.795Z,21.97
2023-05-20T08:00:35.787Z,21.97
2023-05-20T08:03:05.923Z,21.99
2023-05-20T08:05:45.193Z,21.71
2023-05-20T08:08:12.023Z,22.26
2023-05-20T08:11:02.056Z,22.56
2023-05-20T08:13:30.532Z,22.72
2023-05-20T08:15:58.368Z,22.77
2023-05-20T08:18:27.393Z,22.67
2023-05-20T08:20:53.947Z,22.72
2023-05-20T08:23:20.587Z,22.87
2023-05-20T08:25:48.309Z,22.47
2023-05-20T08:28:16.086Z,22.68
2023-05-20T08:30:42.781Z,22.66
2023-05-20T08:33:09.462Z,22.65
2023-05-20T08:35:39.477Z,22.80
2023-05-20T08:38:06.997Z,22.96
2023-05-20T08:40:36.742Z,22.93
2023-05-20T08:43:04.363Z,23.07
2023-05-20T08:45:33.851Z,22.93
2023-05-20T08:48:05.858Z,23.43
2023-05-20T08:50:32.745Z,23.20
2023-05-20T08:53:00.225Z,23.01
2023-05-20T08:55:43.766Z,23.09
2023-05-20T08:58:10.403Z,23.12
2023-05-20T09:00:37.449Z,23.08
2023-05-20T09:03:05.383Z,22.94
2023-05-20T09:05:32.833Z,22.83
2023-05-20T09:08:11.260Z,23.09
2023-05-20T09:10:42.011Z,22.97
2023-05-20T09:13:10.305Z,23.19
2023-05-20T09:15:37.631Z,23.29
2023-05-20T09:18:06.804Z,23.40
2023-05-20T09:20:37.888Z,23.38
2023-05-20T09:23:06.530Z,23.59
2023-05-20T09:25:33.848Z,23.44
2023-05-20T09:28:00.955Z,23.59
2023-05-20T09:30:27.639Z,23.45
2023-05-20T09:32:56.311Z,23.51
2023-05-20T09:35:24.003Z,23.55
2023-05-20T09:37:55.298Z,23.37
2023-05-20T09:40:26.646Z,23.12
2023-05-20T09:43:02.438Z,23.52
2023-05-20T09:45:29.122Z,23.89
2023-05-20T09:47:57.104Z,24.11
2023-05-20T09:50:25.477Z,23.87
2023-05-20T09:52:53.469Z,24.16
2023-05-20T09:55:21.930Z,24.30
2023-05-20T09:57:48.686Z,24.45
2023-05-20T10:00:17.643Z,24.48
2023-05-20T10:02:52.128Z,25.32
2023-05-20T10:05:36.781Z,25.33
2023-05-20T10:08:22.460Z,25.33
2023-05-20T10:11:17.454Z,25.03
2023-05-20T10:13:59.063Z,25.07
2023-05-20T10:16:35.577Z,25.16
2023-05-20T10:19:36.770Z,25.34
2023-05-20T10:22:10.262Z,25.88
2023-05-20T10:24:41.542Z,25.77
2023-05-20T10:27:17.167Z,25.86
2023-05-20T10:29:51.334Z,26.51
2023-05-20T10:32:32.377Z,26.53
2023-05-20T10:35:01.735Z,26.89
2023-05-20T10:37:30.894Z,27.03
2023-05-20T10:40:07.470Z,26.90
2023-05-20T10:42:34.078Z,26.54
2023-05-20T10:45:00.730Z,27.15
2023-05-20T10:47:27.673Z,26.62
2023-05-20T10:49:54.340Z,27.25
2023-05-20T10:52:21.398Z,27.08
2023-05-20T10:54:56.136Z,26.58
2023-05-20T10:57:24.257Z,26.34
2023-05-20T10:59:51.357Z,26.35
2023-05-20T11:02:18.789Z,26.86
2023-05-20T11:04:49.282Z,27.08
2023-05-20T11:07:28.922Z,26.70
2023-05-20T11:09:58.955Z,26.16
2023-05-20T11:12:26.905Z,26.37
2023-05-20T11:14:54.344Z,26.12
2023-05-20T11:17:21.226Z,27.43
2023-05-20T11:19:48.413Z,27.20
2023-05-20T11:22:15.116Z,27.58
2023-05-20T11:24:41.774Z,28.75
2023-05-20T11:27:08.595Z,28.34
2023-05-20T11:29:35.295Z,27.74
2023-05-20T11:32:02.185Z,27.94
2023-05-20T11:34:36.804Z,28.95
2023-05-20T11:37:08.828Z,29.36
2023-05-20T11:39:35.725Z,28.92
2023-05-20T11:42:03.276Z,29.45
2023-05-20T11:44:29.874Z,29.14
2023-05-20T11:47:01.128Z,28.75
2023-05-20T11:49:28.350Z,28.91
2023-05-20T11:51:55.055Z,30.13
2023-05-20T11:54:23.985Z,30.99
2023-05-20T11:56:50.723Z,31.04
2023-05-20T11:59:17.284Z,29.56
2023-05-20T12:01:44.391Z,28.61
2023-05-20T12:04:13.301Z,28.15
2023-05-20T12:06:40.222Z,28.60
2023-05-20T12:09:08.548Z,28.71
2023-05-20T12:11:37.312Z,27.98
2023-05-20T12:14:04.332Z,27.96
2023-05-20T12:16:32.703Z,27.22
2023-05-20T12:18:59.809Z,27.38
2023-05-20T12:21:26.653Z,27.41
2023-05-20T12:23:57.702Z,27.56
2023-05-20T12:26:26.019Z,27.33
2023-05-20T12:28:53.308Z,27.09
2023-05-20T12:31:20.467Z,27.11
2023-05-20T12:33:47.423Z,27.30
2023-05-20T12:36:14.765Z,28.09
2023-05-20T12:38:41.408Z,28.40
2023-05-20T12:41:08.103Z,28.16
2023-05-20T12:43:37.003Z,27.02
2023-05-20T12:46:04.226Z,27.23
2023-05-20T12:48:30.881Z,26.92
2023-05-20T12:50:57.539Z,26.27
2023-05-20T12:53:24.193Z,26.03
2023-05-20T12:55:50.884Z,25.89
2023-05-20T12:58:17.441Z,25.50
2023-05-20T13:00:44.221Z,25.40
2023-05-20T13:03:11.392Z,25.27
2023-05-20T13:05:38.237Z,25.27
2023-05-20T13:08:05.164Z,25.43
2023-05-20T13:10:33.234Z,25.60
2023-05-20T13:13:00.001Z,25.87
2023-05-20T13:15:26.645Z,25.58
2023-05-20T13:17:54.316Z,25.97
2023-05-20T13:20:21.520Z,26.25
2023-05-20T13:22:50.121Z,26.15
2023-05-20T13:25:16.866Z,26.25
2023-05-20T13:27:43.740Z,25.73
2023-05-20T13:30:10.689Z,26.14
2023-05-20T13:32:37.307Z,26.07
2023-05-20T13:35:04.221Z,26.03
2023-05-20T13:37:30.794Z,26.19
2023-05-20T13:39:57.435Z,25.69
2023-05-20T13:42:24.032Z,26.34
2023-05-20T13:44:50.682Z,26.30
2023-05-20T13:47:17.302Z,25.96
2023-05-20T13:49:43.886Z,26.31
2023-05-20T13:52:10.428Z,26.12
2023-05-20T13:54:37.210Z,25.98
2023-05-20T13:57:07.694Z,26.57
2023-05-20T13:59:35.019Z,27.01
2023-05-20T14:02:02.259Z,26.96
2023-05-20T14:04:30.997Z,26.48
2023-05-20T14:06:57.760Z,26.57
2023-05-20T14:09:24.255Z,26.30
2023-05-20T14:11:51.371Z,26.31
2023-05-20T14:14:17.898Z,26.34
2023-05-20T14:16:44.470Z,25.96
2023-05-20T14:19:11.212Z,25.70
2023-05-20T14:21:37.861Z,25.66
2023-05-20T14:24:04.743Z,25.65
2023-05-20T14:26:31.533Z,25.69
2023-05-20T14:28:58.229Z,25.66
2023-05-20T14:31:24.852Z,25.62
2023-05-20T14:33:51.434Z,25.57
2023-05-20T14:36:18.087Z,25.49
2023-05-20T14:38:44.823Z,25.30
2023-05-20T14:41:11.393Z,25.36
2023-05-20T14:43:38.012Z,25.50
2023-05-20T14:46:04.723Z,25.83
2023-05-20T14:48:31.298Z,25.78
2023-05-20T14:50:57.840Z,25.85
2023-05-20T14:53:24.424Z,25.81
2023-05-20T14:55:51.010Z,25.84
2023-05-20T14:58:17.688Z,25.98
2023-05-20T15:00:44.464Z,26.15
2023-05-20T15:03:11.705Z,26.74
2023-05-20T15:05:38.457Z,27.61
2023-05-20T15:08:05.194Z,28.14
2023-05-20T15:10:31.883Z,28.18
2023-05-20T15:12:58.465Z,28.01
2023-05-20T15:15:25.276Z,27.92
2023-05-20T15:17:51.963Z,29.74
2023-05-20T15:20:18.668Z,30.04
2023-05-20T15:22:48.337Z,30.53
2023-05-20T15:25:15.493Z,31.03
2023-05-20T15:27:42.333Z,31.19
2023-05-20T15:30:09.739Z,29.67
2023-05-20T15:32:36.595Z,27.34
2023-05-20T15:35:04.237Z,27.17
2023-05-20T15:37:31.061Z,27.04
2023-05-20T15:39:57.638Z,26.97
2023-05-20T15:42:25.010Z,27.05
2023-05-20T15:44:51.650Z,27.36
2023-05-20T15:47:18.269Z,27.58
2023-05-20T15:49:44.861Z,27.69
2023-05-20T15:52:11.454Z,26.08
2023-05-20T15:54:38.071Z,24.96
2023-05-20T15:57:05.288Z,24.07
2023-05-20T15:59:32.054Z,23.62
2023-05-20T16:01:58.821Z,23.15
2023-05-20T16:04:25.796Z,24.28
2023-05-20T16:06:52.448Z,24.32
2023-05-20T16:09:19.032Z,23.79
2023-05-20T16:11:46.362Z,23.54
2023-05-20T16:14:13.062Z,25.92
2023-05-20T16:16:39.842Z,27.13
2023-05-20T16:19:06.614Z,28.05
2023-05-20T16:21:33.326Z,28.65
2023-05-20T16:23:59.886Z,28.59
2023-05-20T16:26:26.632Z,28.92
2023-05-20T16:28:53.217Z,28.19
2023-05-20T16:31:19.887Z,26.06
2023-05-20T16:33:47.087Z,25.73
2023-05-20T16:36:13.668Z,25.10
2023-05-20T16:38:40.358Z,24.53
2023-05-20T16:41:06.955Z,23.48
2023-05-20T16:43:33.585Z,23.04
2023-05-20T16:46:00.684Z,22.84
2023-05-20T16:48:27.259Z,22.94
2023-05-20T16:50:53.910Z,23.26
2023-05-20T16:53:20.664Z,23.21
2023-05-20T16:55:47.283Z,23.41
2023-05-20T16:58:13.860Z,23.35
2023-05-20T17:00:40.950Z,23.51
2023-05-20T17:03:07.657Z,23.14
2023-05-20T17:05:34.389Z,23.38
2023-05-20T17:08:01.302Z,23.01
2023-05-20T17:10:28.820Z,22.50
2023-05-20T17:12:55.598Z,22.42
2023-05-20T17:15:23.474Z,22.50
2023-05-20T17:17:50.978Z,22.63
2023-05-20T17:20:17.696Z,22.70
2023-05-20T17:22:44.484Z,22.50
2023-05-20T17:25:11.321Z,21.89
2023-05-20T17:27:38.015Z,22.32
2023-05-20T17:30:05.572Z,22.45
2023-05-20T17:32:32.264Z,22.37
2023-05-20T17:34:58.810Z,22.37
2023-05-20T17:37:25.983Z,21.76
2023-05-20T17:39:52.620Z,21.90
2023-05-20T17:42:19.223Z,22.66
2023-05-20T17:44:46.021Z,22.11
2023-05-20T17:47:12.663Z,21.54
2023-05-20T17:49:39.295Z,21.25
2023-05-20T17:52:06.303Z,20.85
2023-05-20T17:54:32.936Z,20.88
2023-05-20T17:56:59.671Z,20.72
2023-05-20T17:59:26.367Z,20.72
2023-05-20T18:01:53.070Z,20.71
2023-05-20T18:04:21.288Z,20.96
2023-05-20T18:06:47.935Z,20.85
2023-05-20T18:09:14.563Z,20.91
2023-05-20T18:11:41.178Z,20.50
2023-05-20T18:14:07.813Z,20.97
2023-05-20T18:16:34.841Z,21.26
2023-05-20T18:19:02.797Z,21.35
2023-05-20T18:21:30.507Z,21.05
2023-05-20T18:23:57.174Z,21.39
2023-05-20T18:26:23.811Z,21.14
2023-05-20T18:28:50.402Z,20.49
2023-05-20T18:31:17.108Z,20.55
2023-05-20T18:33:43.713Z,20.41
2023-05-20T18:36:10.611Z,20.40
2023-05-20T18:38:39.124Z,20.26
2023-05-20T18:41:07.836Z,20.46
2023-05-20T18:43:34.490Z,20.20
2023-05-20T18:46:01.338Z,19.97
2023-05-20T18:48:28.014Z,19.56
2023-05-20T18:50:55.550Z,19.44
2023-05-20T18:53:22.534Z,19.16
2023-05-20T18:55:49.590Z,19.09
2023-05-20T18:58:16.189Z,19.01
2023-05-20T19:00:42.979Z,18.90
2023-05-20T19:03:09.570Z,18.71
2023-05-20T19:05:36.783Z,18.71
2023-05-20T19:08:05.691Z,18.31
2023-05-20T19:10:32.717Z,18.62
2023-05-20T19:12:59.758Z,18.60
2023-05-20T19:15:26.654Z,18.50
2023-05-20T19:17:53.395Z,18.12
2023-05-20T19:20:20.195Z,18.26
2023-05-20T19:22:47.085Z,18.18
2023-05-20T19:25:13.649Z,18.13
2023-05-20T19:27:40.321Z,17.94
2023-05-20T19:30:10.488Z,17.85
2023-05-20T19:32:37.885Z,17.50
2023-05-20T19:35:07.749Z,17.57
2023-05-20T19:37:34.479Z,17.11
2023-05-20T19:40:01.384Z,17.47
2023-05-20T19:42:28.191Z,17.21
2023-05-20T19:44:54.961Z,17.26
2023-05-20T19:47:21.837Z,16.74
2023-05-20T19:49:48.529Z,17.08
2023-05-20T19:52:15.556Z,17.35
2023-05-20T19:54:42.769Z,17.27
2023-05-20T19:57:10.044Z,17.15
2023-05-20T19:59:38.101Z,17.21
2023-05-20T20:02:06.157Z,16.79
2023-05-20T20:04:32.894Z,16.84
2023-05-20T20:07:00.024Z,16.97
2023-05-20T20:09:27.016Z,16.59
2023-05-20T20:11:54.031Z,16.88
2023-05-20T20:14:21.521Z,16.88
2023-05-20T20:16:49.447Z,17.07
2023-05-20T20:19:22.688Z,17.06
2023-05-20T20:21:56.520Z,17.09
2023-05-20T20:24:26.111Z,17.01
2023-05-20T20:26:54.316Z,16.85
2023-05-20T20:29:24.201Z,16.66
2023-05-20T20:31:51.595Z,16.09
2023-05-20T20:34:18.380Z,16.38
2023-05-20T20:36:47.195Z,16.35
2023-05-20T20:39:18.999Z,16.20
2023-05-20T20:41:52.609Z,15.57
2023-05-20T20:44:22.431Z,15.84
2023-05-20T20:46:54.801Z,15.55
2023-05-20T20:49:23.003Z,15.22
2023-05-20T20:51:50.753Z,15.10
2023-05-20T20:54:17.485Z,14.67
2023-05-20T20:56:46.770Z,15.04
2023-05-20T20:59:13.807Z,15.20
2023-05-20T21:01:44.608Z,15.10
2023-05-20T21:04:13.677Z,15.08
2023-05-20T21:06:46.035Z,15.00
2023-05-20T21:09:16.300Z,14.64
2023-05-20T21:11:45.137Z,14.88
2023-05-20T21:14:12.893Z,14.89
2023-05-20T21:16:39.768Z,14.80
2023-05-20T21:19:06.415Z,14.97
2023-05-20T21:21:33.052Z,14.85
2023-05-20T21:23:59.711Z,14.79
2023-05-20T21:26:26.611Z,15.03
2023-05-20T21:28:53.424Z,14.93
2023-05-20T21:31:20.126Z,15.02
2023-05-20T21:33:46.905Z,14.89
2023-05-20T21:36:13.628Z,14.79
2023-05-20T21:38:40.353Z,14.75
2023-05-20T21:41:07.483Z,14.88
2023-05-20T21:43:35.847Z,14.90
2023-05-20T21:46:02.758Z,14.78
2023-05-20T21:48:29.526Z,14.92
2023-05-20T21:50:56.243Z,14.77
2023-05-20T21:53:22.919Z,14.86
2023-05-20T21:55:49.716Z,14.87
2023-05-20T21:58:16.327Z,15.07
2023-05-20T22:00:43.074Z,14.88
2023-05-20T22:03:09.814Z,14.43
2023-05-20T22:05:37.274Z,14.46
2023-05-20T22:08:04.538Z,15.16
2023-05-20T22:10:33.994Z,15.21
2023-05-20T22:13:02.059Z,15.13
2023-05-20T22:15:28.840Z,15.13
2023-05-20T22:17:55.620Z,15.11
2023-05-20T22:20:22.516Z,15.19
2023-05-20T22:23:14.331Z,15.28
2023-05-20T22:25:41.198Z,15.21
2023-05-20T22:28:08.265Z,15.12
2023-05-20T22:30:35.244Z,15.01
2023-05-20T22:33:02.973Z,15.14
2023-05-20T22:35:29.673Z,15.00
2023-05-20T22:37:57.271Z,14.87
2023-05-20T22:40:23.875Z,14.30
2023-05-20T22:42:50.476Z,14.64
2023-05-20T22:45:17.372Z,14.66
2023-05-20T22:47:45.473Z,14.54
2023-05-20T22:50:13.508Z,14.45
2023-05-20T22:52:41.609Z,14.44
2023-05-20T22:55:09.452Z,13.98
2023-05-20T22:57:36.994Z,14.43
2023-05-20T23:00:05.096Z,14.15
2023-05-20T23:02:31.734Z,14.29
2023-05-20T23:04:58.412Z,14.29
2023-05-20T23:07:25.082Z,14.20
2023-05-20T23:09:51.892Z,14.24
2023-05-20T23:12:18.524Z,14.17
2023-05-20T23:14:46.200Z,13.62
2023-05-20T23:17:12.835Z,13.71
2023-05-20T23:19:39.584Z,14.06
2023-05-20T23:22:06.322Z,13.82
2023-05-20T23:24:32.950Z,14.05
2023-05-20T23:27:00.170Z,14.06
2023-05-20T23:29:26.941Z,13.99
2023-05-20T23:31:53.574Z,14.18
2023-05-20T23:34:20.276Z,13.80
2023-05-20T23:36:47.102Z,14.04
2023-05-20T23:39:16.248Z,13.69
2023-05-20T23:41:44.814Z,14.02
2023-05-20T23:44:11.407Z,14.09
2023-05-20T23:46:38.308Z,13.58
2023-05-20T23:49:05.717Z,14.27
2023-05-20T23:51:32.297Z,14.30
2023-05-20T23:53:58.928Z,14.32
2023-05-20T23:56:25.864Z,14.30
2023-05-20T23:58:52.526Z,14.45
